createdAt,value
2023-01-11T00:00:36.384Z,28.24
2023-01-11T00:02:41.048Z,28.54
2023-01-11T00:04:45.674Z,28.02
2023-01-11T00:06:50.502Z,28.81
2023-01-11T00:08:54.967Z,28.51
2023-01-11T00:10:59.509Z,27.97
2023-01-11T00:13:03.977Z,27.71
2023-01-11T00:15:08.508Z,27.84
2023-01-11T00:17:12.939Z,27.79
2023-01-11T00:19:17.366Z,27.38
2023-01-11T00:21:21.888Z,27.07
2023-01-11T00:23:26.327Z,27.48
2023-01-11T00:25:31.019Z,27.62
2023-01-11T00:27:35.546Z,27.82
2023-01-11T00:29:40.025Z,27.24
2023-01-11T00:31:44.716Z,27.53
2023-01-11T00:33:49.195Z,27.34
2023-01-11T00:35:53.704Z,27.23
2023-01-11T00:37:58.166Z,27.59
2023-01-11T00:40:02.609Z,26.87
2023-01-11T00:42:07.043Z,27.45
2023-01-11T00:44:11.503Z,27.69
2023-01-11T00:46:16.178Z,27.78
2023-01-11T00:48:20.736Z,28.56
2023-01-11T00:50:25.162Z,27.92
2023-01-11T00:52:29.577Z,28.2
2023-01-11T00:54:33.998Z,27.35
2023-01-11T00:56:38.436Z,27.62
2023-01-11T00:58:42.886Z,27.47
2023-01-11T01:00:47.358Z,27.37
2023-01-11T01:02:52.117Z,26.95
2023-01-11T01:04:56.643Z,27.8
2023-01-11T01:07:01.136Z,27.3
2023-01-11T01:09:05.594Z,27.5
2023-01-11T01:11:10.031Z,27.69
2023-01-11T01:13:14.490Z,28.19
2023-01-11T01:15:18.932Z,28.34
2023-01-11T01:17:23.399Z,27.8
2023-01-11T01:19:27.900Z,28.04
2023-01-11T01:21:32.349Z,28.26
2023-01-11T01:23:36.784Z,27.57
2023-01-11T01:25:41.209Z,27.98
2023-01-11T01:27:45.657Z,26.93
2023-01-11T01:29:50.071Z,26.9
2023-01-11T01:31:54.498Z,26.89
2023-01-11T01:33:59.128Z,26.37
2023-01-11T01:36:03.593Z,26.25
2023-01-11T01:38:08.032Z,26.67
2023-01-11T01:40:12.462Z,26.38
2023-01-11T01:42:16.941Z,26.22
2023-01-11T01:44:21.382Z,26.18
2023-01-11T01:46:26.061Z,27.15
2023-01-11T01:48:30.523Z,26.73
2023-01-11T01:50:34.924Z,26.53
2023-01-11T01:52:39.590Z,26.75
2023-01-11T01:54:44.007Z,26.15
2023-01-11T01:56:48.425Z,26.33
2023-01-11T01:58:52.917Z,25.9
2023-01-11T02:00:57.430Z,25.83
2023-01-11T02:03:02.162Z,25.65
2023-01-11T02:05:06.741Z,25.67
2023-01-11T02:07:11.133Z,25.91
2023-01-11T02:09:15.578Z,25.31
2023-01-11T02:11:19.979Z,25.56
2023-01-11T02:13:24.425Z,25.68
2023-01-11T02:15:28.867Z,25.36
2023-01-11T02:17:33.344Z,26.13
2023-01-11T02:19:37.775Z,25.61
2023-01-11T02:21:42.161Z,25.76
2023-01-11T02:23:46.604Z,25.37
2023-01-11T02:25:51.048Z,25.12
2023-01-11T02:27:55.463Z,25.12
2023-01-11T02:29:59.868Z,25.14
2023-01-11T02:32:04.303Z,25.31
2023-01-11T02:34:08.722Z,25.01
2023-01-11T02:36:13.174Z,25.04
2023-01-11T02:38:17.572Z,25.03
2023-01-11T02:40:22.027Z,25.38
2023-01-11T02:42:26.479Z,25.4
2023-01-11T02:44:30.956Z,25.59
2023-01-11T02:46:35.622Z,25.11
2023-01-11T02:48:40.029Z,25.21
2023-01-11T02:50:44.450Z,25.13
2023-01-11T02:52:48.887Z,25.34
2023-01-11T02:54:53.427Z,26
2023-01-11T02:56:57.866Z,25.17
2023-01-11T02:59:02.305Z,25.59
2023-01-11T03:01:06.751Z,25
2023-01-11T03:03:11.531Z,25.14
2023-01-11T03:05:15.995Z,25.76
2023-01-11T03:07:20.481Z,25.53
2023-01-11T03:09:24.987Z,25.51
2023-01-11T03:11:29.521Z,25.22
2023-01-11T03:13:33.980Z,25.23
2023-01-11T03:15:38.496Z,25.46
2023-01-11T03:17:43.015Z,25.85
2023-01-11T03:19:47.471Z,25.51
2023-01-11T03:21:52.180Z,25.67
2023-01-11T03:23:56.860Z,25.41
2023-01-11T03:26:01.289Z,25.45
2023-01-11T03:28:05.860Z,25.46
2023-01-11T03:30:10.269Z,25.19
2023-01-11T03:32:14.748Z,25.44
2023-01-11T03:34:19.179Z,25.73
2023-01-11T03:36:23.576Z,25.25
2023-01-11T03:38:27.996Z,25.44
2023-01-11T03:40:32.414Z,25.92
2023-01-11T03:42:36.850Z,26.23
2023-01-11T03:44:41.290Z,25.31
2023-01-11T03:46:45.855Z,25.95
2023-01-11T03:48:50.441Z,26.42
2023-01-11T03:50:54.825Z,25.69
2023-01-11T03:52:59.263Z,25.69
2023-01-11T03:55:03.776Z,26.24
2023-01-11T03:57:08.338Z,26.96
2023-01-11T03:59:12.780Z,26.16
2023-01-11T04:01:17.477Z,26.4
2023-01-11T04:03:21.924Z,25.98
2023-01-11T04:05:26.367Z,26.63
2023-01-11T04:07:30.805Z,26.32
2023-01-11T04:09:37.450Z,26.36
2023-01-11T04:11:42.701Z,25.99
2023-01-11T04:14:23.667Z,26.04
2023-01-11T04:16:28.270Z,26.26
2023-01-11T04:18:32.667Z,26.51
2023-01-11T04:20:37.094Z,26.76
2023-01-11T04:22:41.621Z,26.86
2023-01-11T04:24:46.123Z,27.14
2023-01-11T04:26:50.600Z,26.88
2023-01-11T04:28:56.489Z,26.56
2023-01-11T04:31:00.948Z,25.85
2023-01-11T04:33:05.391Z,26.76
2023-01-11T04:35:09.999Z,26.76
2023-01-11T04:37:14.448Z,26.8
2023-01-11T04:39:18.845Z,26.32
2023-01-11T04:41:25.729Z,26.96
2023-01-11T04:43:30.178Z,26.92
2023-01-11T04:45:34.788Z,26.67
2023-01-11T04:47:39.308Z,26.58
2023-01-11T04:49:43.751Z,26.78
2023-01-11T04:51:48.184Z,26.67
2023-01-11T04:53:52.686Z,27.15
2023-01-11T04:55:57.089Z,27.06
2023-01-11T04:58:01.531Z,26.69
2023-01-11T05:00:06.022Z,26.92
2023-01-11T05:02:10.541Z,27.12
2023-01-11T05:04:15.788Z,26.55
2023-01-11T05:06:20.263Z,27.03
2023-01-11T05:08:24.668Z,26.71
2023-01-11T05:10:29.092Z,27.18
2023-01-11T05:12:33.467Z,25.87
2023-01-11T05:14:37.866Z,26.69
2023-01-11T05:16:42.505Z,26.61
2023-01-11T05:18:46.901Z,27.07
2023-01-11T05:20:51.290Z,25.85
2023-01-11T05:22:55.779Z,27.2
2023-01-11T05:25:00.217Z,27.65
2023-01-11T05:27:04.597Z,27.64
2023-01-11T05:29:09.020Z,27.74
2023-01-11T05:31:13.411Z,28.05
2023-01-11T05:33:17.885Z,28.41
2023-01-11T05:35:22.271Z,28.51
2023-01-11T05:37:26.657Z,29.01
2023-01-11T05:39:31.093Z,28.52
2023-01-11T05:41:35.477Z,28.77
2023-01-11T05:43:39.859Z,28.82
2023-01-11T05:45:44.450Z,29.19
2023-01-11T05:47:48.838Z,29.09
2023-01-11T05:49:53.196Z,29.15
2023-01-11T05:51:57.589Z,29.11
2023-01-11T05:54:01.992Z,29.22
2023-01-11T05:56:06.396Z,29.25
2023-01-11T05:58:10.828Z,29.81
2023-01-11T06:00:15.219Z,30.25
2023-01-11T06:02:20.231Z,30.49
2023-01-11T06:04:24.732Z,30.87
2023-01-11T06:06:29.431Z,30.64
2023-01-11T06:08:33.859Z,30.54
2023-01-11T06:10:38.282Z,30.87
2023-01-11T06:12:42.683Z,31.03
2023-01-11T06:14:47.116Z,31.08
2023-01-11T06:16:51.664Z,31.32
2023-01-11T06:18:56.097Z,31.62
2023-01-11T06:21:00.460Z,31.72
2023-01-11T06:23:04.873Z,31.77
2023-01-11T06:25:09.273Z,31.77
2023-01-11T06:27:13.707Z,31.74
2023-01-11T06:29:18.226Z,31.7
2023-01-11T06:31:22.843Z,32.02
2023-01-11T06:33:27.306Z,32.08
2023-01-11T06:35:31.705Z,32.07
2023-01-11T06:37:36.102Z,32.17
2023-01-11T06:39:40.454Z,32.27
2023-01-11T06:41:44.852Z,32.31
2023-01-11T06:43:49.249Z,32.58
2023-01-11T06:45:53.900Z,32.49
2023-01-11T06:47:58.346Z,32.54
2023-01-11T06:50:02.753Z,32.54
2023-01-11T06:52:07.533Z,32.78
2023-01-11T06:54:12.057Z,32.76
2023-01-11T06:56:16.478Z,32.67
2023-01-11T06:58:21.037Z,32.79
2023-01-11T07:00:25.609Z,32.77
2023-01-11T07:02:30.094Z,32.97
2023-01-11T07:04:34.478Z,32.97
2023-01-11T07:06:39.123Z,32.75
2023-01-11T07:08:43.459Z,32.88
2023-01-11T07:10:47.855Z,32.83
2023-01-11T07:12:52.271Z,32.63
2023-01-11T07:14:56.677Z,32.43
2023-01-11T07:17:01.093Z,32.35
2023-01-11T07:19:05.519Z,32.33
2023-01-11T07:21:09.984Z,32.3
2023-01-11T07:23:14.389Z,32.22
2023-01-11T07:25:18.822Z,32.14
2023-01-11T07:27:23.209Z,32.29
2023-01-11T07:29:27.600Z,32.25
2023-01-11T07:31:32.240Z,32.16
2023-01-11T07:33:36.726Z,32.09
2023-01-11T07:35:41.130Z,32.04
2023-01-11T07:37:45.485Z,31.97
2023-01-11T07:39:49.915Z,31.95
2023-01-11T07:41:54.322Z,31.89
2023-01-11T07:43:58.716Z,31.83
2023-01-11T07:46:03.625Z,31.83
2023-01-11T07:48:08.062Z,31.75
2023-01-11T07:50:12.441Z,31.73
2023-01-11T07:52:17.011Z,31.72
2023-01-11T07:54:21.362Z,31.63
2023-01-11T07:56:25.809Z,31.62
2023-01-11T07:58:30.184Z,31.59
2023-01-11T08:00:34.597Z,31.58
2023-01-11T08:02:39.310Z,31.52
2023-01-11T08:04:43.805Z,31.5
2023-01-11T08:06:48.268Z,31.49
2023-01-11T08:08:52.694Z,31.53
2023-01-11T08:10:57.237Z,31.53
2023-01-11T08:13:01.892Z,31.47
2023-01-11T08:15:06.408Z,31.5
2023-01-11T08:17:10.836Z,31.48
2023-01-11T08:19:15.731Z,31.49
2023-01-11T08:21:20.111Z,31.47
2023-01-11T08:23:24.557Z,31.45
2023-01-11T08:25:28.979Z,31.43
2023-01-11T08:27:33.376Z,31.46
2023-01-11T08:29:37.753Z,31.45
2023-01-11T08:31:42.161Z,31.42
2023-01-11T08:33:46.662Z,31.43
2023-01-11T08:35:51.133Z,31.42
2023-01-11T08:37:55.554Z,31.35
2023-01-11T08:39:59.969Z,31.47
2023-01-11T08:42:04.357Z,31.39
2023-01-11T08:44:08.997Z,31.4
2023-01-11T08:46:13.613Z,31.38
2023-01-11T08:48:18.092Z,31.38
2023-01-11T08:50:24.034Z,31.37
2023-01-11T08:52:28.425Z,31.37
2023-01-11T08:54:32.977Z,31.32
2023-01-11T08:56:37.355Z,31.32
2023-01-11T08:58:41.750Z,31.34
2023-01-11T09:00:46.189Z,31.34
2023-01-11T09:02:50.731Z,31.33
2023-01-11T09:04:55.276Z,31.29
2023-01-11T09:06:59.664Z,31.27
2023-01-11T09:09:04.155Z,31.32
2023-01-11T09:11:08.631Z,31.26
2023-01-11T09:13:13.026Z,31.25
2023-01-11T09:15:17.470Z,31.22
2023-01-11T09:17:21.883Z,31.21
2023-01-11T09:19:26.427Z,31.22
2023-01-11T09:21:30.911Z,31.27
2023-01-11T09:23:35.411Z,31.26
2023-01-11T09:25:39.818Z,31.33
2023-01-11T09:27:44.216Z,31.35
2023-01-11T09:29:48.625Z,31.34
2023-01-11T09:31:53.069Z,31.32
2023-01-11T09:33:57.487Z,31.32
2023-01-11T09:36:01.876Z,31.29
2023-01-11T09:38:06.255Z,31.23
2023-01-11T09:40:13.854Z,31.22
2023-01-11T09:42:18.405Z,31.21
2023-01-11T09:44:22.794Z,31.24
2023-01-11T09:46:27.383Z,31.28
2023-01-11T09:48:31.815Z,31.27
2023-01-11T09:50:36.230Z,31.28
2023-01-11T09:52:40.953Z,31.28
2023-01-11T09:54:45.387Z,31.3
2023-01-11T09:56:49.884Z,31.27
2023-01-11T09:58:54.304Z,31.27
2023-01-11T10:01:02.064Z,31.31
2023-01-11T10:03:06.526Z,31.39
2023-01-11T10:05:11.251Z,31.37
2023-01-11T10:07:15.666Z,31.34
2023-01-11T10:14:00.910Z,31.25
2023-01-11T10:20:34.528Z,31.19
2023-01-11T10:22:38.996Z,31.03
2023-01-11T10:24:44.558Z,31.03
2023-01-11T10:26:49.155Z,31.05
2023-01-11T10:28:53.539Z,31.11
2023-01-11T10:30:58.000Z,31.13
2023-01-11T10:33:02.418Z,31.15
2023-01-11T10:35:06.790Z,31.19
2023-01-11T10:37:11.197Z,31.21
2023-01-11T10:39:15.673Z,31.24
2023-01-11T10:41:20.155Z,31.18
2023-01-11T10:43:24.614Z,31.24
2023-01-11T10:45:29.244Z,31.21
2023-01-11T10:47:33.796Z,31.21
2023-01-11T10:49:38.685Z,31.18
2023-01-11T10:51:43.340Z,31.22
2023-01-11T10:53:47.730Z,31.22
2023-01-11T10:55:52.223Z,31.18
2023-01-11T10:58:04.999Z,31.18
2023-01-11T11:00:09.481Z,31.21
2023-01-11T11:02:14.106Z,31.29
2023-01-11T11:04:18.567Z,31.28
2023-01-11T11:06:22.991Z,31.28
2023-01-11T11:08:27.728Z,31.29
2023-01-11T11:10:32.206Z,31.3
2023-01-11T11:12:36.614Z,31.36
2023-01-11T11:14:41.973Z,31.35
2023-01-11T11:16:46.640Z,31.36
2023-01-11T11:18:51.323Z,31.4
2023-01-11T11:20:55.756Z,31.34
2023-01-11T11:23:00.127Z,31.46
2023-01-11T11:25:04.727Z,31.37
2023-01-11T11:27:09.398Z,31.35
2023-01-11T11:29:13.995Z,31.36
2023-01-11T11:31:18.562Z,31.42
2023-01-11T11:33:23.037Z,31.38
2023-01-11T11:35:27.539Z,31.36
2023-01-11T11:37:31.934Z,31.33
2023-01-11T11:39:36.371Z,31.38
2023-01-11T11:41:40.769Z,31.4
2023-01-11T11:43:45.276Z,31.48
2023-01-11T11:45:50.119Z,31.56
2023-01-11T11:47:54.645Z,31.54
2023-01-11T11:49:59.027Z,31.76
2023-01-11T11:52:03.439Z,31.77
2023-01-11T11:54:07.777Z,31.65
2023-01-11T11:56:12.360Z,31.79
2023-01-11T11:58:16.717Z,31.74
2023-01-11T12:00:21.080Z,31.67
2023-01-11T12:02:25.781Z,31.76
2023-01-11T12:04:30.108Z,31.58
2023-01-11T12:06:34.461Z,31.65
2023-01-11T12:08:38.843Z,31.71
2023-01-11T12:10:43.156Z,31.69
2023-01-11T12:12:47.480Z,32
2023-01-11T12:14:51.850Z,31.84
2023-01-11T12:16:56.421Z,31.93
2023-01-11T12:19:00.935Z,31.69
2023-01-11T12:21:05.296Z,31.87
2023-01-11T12:23:09.644Z,32.04
2023-01-11T12:25:13.973Z,32.14
2023-01-11T12:27:18.680Z,32.05
2023-01-11T12:29:23.044Z,31.96
2023-01-11T12:31:27.422Z,32.04
2023-01-11T12:33:31.803Z,31.97
2023-01-11T12:35:36.171Z,31.92
2023-01-11T12:37:40.525Z,31.85
2023-01-11T12:39:44.896Z,32.03
2023-01-11T12:41:49.320Z,31.85
2023-01-11T12:43:53.708Z,31.98
2023-01-11T12:45:58.316Z,31.9
2023-01-11T12:48:02.648Z,31.91
2023-01-11T12:50:07.037Z,31.9
2023-01-11T12:52:11.481Z,31.99
2023-01-11T12:54:15.936Z,31.92
2023-01-11T12:56:20.413Z,31.88
2023-01-11T12:58:24.760Z,31.84
2023-01-11T13:00:29.190Z,31.83
2023-01-11T13:02:33.747Z,31.78
2023-01-11T13:04:38.284Z,31.84
2023-01-11T13:06:42.628Z,31.82
2023-01-11T13:08:46.968Z,31.83
2023-01-11T13:10:51.363Z,31.81
2023-01-11T13:12:55.732Z,31.81
2023-01-11T13:15:00.080Z,31.83
2023-01-11T13:17:04.648Z,31.82
2023-01-11T13:19:09.204Z,31.81
2023-01-11T13:21:13.618Z,31.8
2023-01-11T13:23:17.958Z,31.77
2023-01-11T13:25:22.314Z,31.77
2023-01-11T13:27:26.999Z,31.8
2023-01-11T13:29:31.363Z,31.76
2023-01-11T13:31:35.709Z,31.78
2023-01-11T13:33:40.089Z,31.77
2023-01-11T13:35:44.463Z,31.76
2023-01-11T13:37:48.812Z,31.75
2023-01-11T13:39:53.170Z,31.72
2023-01-11T13:41:57.460Z,31.76
2023-01-11T13:44:01.790Z,31.71
2023-01-11T13:46:06.448Z,31.75
2023-01-11T13:48:10.823Z,31.7
2023-01-11T13:50:15.140Z,31.73
2023-01-11T13:52:19.525Z,31.76
2023-01-11T13:54:23.871Z,31.84
2023-01-11T13:56:28.244Z,31.79
2023-01-11T13:58:32.643Z,31.81
2023-01-11T14:00:37.179Z,31.83
2023-01-11T14:02:41.626Z,31.81
2023-01-11T14:04:45.994Z,31.84
2023-01-11T14:06:50.341Z,31.81
2023-01-11T14:08:54.826Z,31.88
2023-01-11T14:10:59.217Z,31.85
2023-01-11T14:13:03.572Z,31.84
2023-01-11T14:15:08.131Z,31.85
2023-01-11T14:17:12.550Z,31.98
2023-01-11T14:19:16.901Z,32.1
2023-01-11T14:21:21.403Z,32.12
2023-01-11T14:23:25.740Z,32.09
2023-01-11T14:25:30.164Z,32.15
2023-01-11T14:27:34.484Z,32.31
2023-01-11T14:29:38.882Z,32.37
2023-01-11T14:31:43.534Z,32.34
2023-01-11T14:33:47.982Z,32.68
2023-01-11T14:35:52.347Z,32.75
2023-01-11T14:37:56.728Z,32.86
2023-01-11T14:40:01.113Z,32.84
2023-01-11T14:42:05.532Z,33.01
2023-01-11T14:44:09.901Z,33.1
2023-01-11T14:46:14.509Z,33.02
2023-01-11T14:48:18.905Z,33.07
2023-01-11T14:50:23.277Z,33.17
2023-01-11T14:52:41.967Z,33.35
2023-01-11T14:54:47.137Z,33.41
2023-01-11T14:56:51.521Z,33.36
2023-01-11T14:58:56.021Z,33.51
2023-01-11T15:01:00.445Z,33.47
2023-01-11T15:03:04.818Z,33.45
2023-01-11T15:05:09.410Z,33.47
2023-01-11T15:07:13.743Z,33.35
2023-01-11T15:09:18.083Z,33.38
2023-01-11T15:11:22.461Z,33.39
2023-01-11T15:13:26.903Z,33.46
2023-01-11T15:15:31.256Z,33.64
2023-01-11T15:17:35.671Z,33.65
2023-01-11T15:19:40.043Z,33.5
2023-01-11T15:21:44.434Z,33.49
2023-01-11T15:23:48.802Z,33.36
2023-01-11T15:25:53.206Z,33.39
2023-01-11T15:27:57.624Z,33.42
2023-01-11T15:30:02.456Z,33.33
2023-01-11T15:32:06.818Z,33.45
2023-01-11T15:34:11.148Z,33.38
2023-01-11T15:36:15.523Z,33.3
2023-01-11T15:38:19.823Z,33.08
2023-01-11T15:40:24.135Z,32.95
2023-01-11T15:42:28.508Z,32.88
2023-01-11T15:44:32.806Z,32.83
2023-01-11T15:46:37.402Z,32.64
2023-01-11T15:48:41.875Z,32.63
2023-01-11T15:50:46.324Z,32.66
2023-01-11T15:52:50.724Z,32.57
2023-01-11T15:54:55.254Z,32.59
2023-01-11T15:56:59.699Z,32.71
2023-01-11T15:59:04.148Z,32.92
2023-01-11T16:01:09.089Z,32.85
2023-01-11T16:03:13.489Z,32.8
2023-01-11T16:05:17.835Z,32.8
2023-01-11T16:07:22.214Z,32.8
2023-01-11T16:09:26.789Z,32.72
2023-01-11T16:11:31.170Z,32.7
2023-01-11T16:13:35.600Z,32.7
2023-01-11T16:15:40.045Z,32.71
2023-01-11T16:17:44.457Z,32.68
2023-01-11T16:19:48.821Z,32.67
2023-01-11T16:21:53.191Z,32.75
2023-01-11T16:23:57.583Z,32.74
2023-01-11T16:26:02.018Z,32.7
2023-01-11T16:28:06.394Z,32.67
2023-01-11T16:30:10.852Z,32.64
2023-01-11T16:32:15.217Z,32.68
2023-01-11T16:34:19.593Z,32.73
2023-01-11T16:36:23.992Z,32.67
2023-01-11T16:38:28.356Z,32.68
2023-01-11T16:40:32.861Z,32.62
2023-01-11T16:42:37.398Z,32.64
2023-01-11T16:44:41.989Z,32.69
2023-01-11T16:46:46.488Z,32.65
2023-01-11T16:48:50.942Z,32.64
2023-01-11T16:50:55.331Z,32.75
2023-01-11T16:52:59.808Z,32.71
2023-01-11T16:55:04.367Z,33.36
2023-01-11T16:57:08.991Z,33.03
2023-01-11T16:59:13.337Z,33.08
2023-01-11T17:01:18.133Z,33.06
2023-01-11T17:03:22.556Z,33.22
2023-01-11T17:05:26.926Z,33.46
2023-01-11T17:07:31.437Z,33.45
2023-01-11T17:09:36.057Z,33.68
2023-01-11T17:11:40.435Z,33.51
2023-01-11T17:13:44.803Z,33.74
2023-01-11T17:15:49.159Z,33.83
2023-01-11T17:17:53.542Z,33.83
2023-01-11T17:19:58.126Z,33.93
2023-01-11T17:22:02.657Z,33.94
2023-01-11T17:24:07.045Z,34.05
2023-01-11T17:26:16.861Z,34.26
2023-01-11T17:28:21.280Z,34.3
2023-01-11T17:30:25.762Z,34.41
2023-01-11T17:32:30.207Z,34.36
2023-01-11T17:34:34.585Z,34.39
2023-01-11T17:36:39.018Z,34.34
2023-01-11T17:38:43.434Z,34.4
2023-01-11T17:40:47.846Z,34.46
2023-01-11T17:42:52.255Z,34.54
2023-01-11T17:44:56.621Z,34.43
2023-01-11T17:47:01.026Z,34.56
2023-01-11T17:49:05.400Z,34.52
2023-01-11T17:51:09.789Z,34.33
2023-01-11T17:53:14.184Z,34.38
2023-01-11T17:55:18.603Z,34.42
2023-01-11T17:57:22.960Z,34.46
2023-01-11T17:59:27.547Z,34.63
2023-01-11T18:01:32.210Z,34.73
2023-01-11T18:03:36.620Z,34.77
2023-01-11T18:05:41.082Z,34.84
2023-01-11T18:07:45.453Z,35.03
2023-01-11T18:09:49.821Z,35.23
2023-01-11T18:11:54.194Z,35.21
2023-01-11T18:13:58.681Z,35.13
2023-01-11T18:16:03.151Z,35.35
2023-01-11T18:18:07.526Z,35.32
2023-01-11T18:20:11.898Z,35.56
2023-01-11T18:22:16.219Z,36.69
2023-01-11T18:24:20.936Z,35.65
2023-01-11T18:26:25.306Z,36.01
2023-01-11T18:28:29.661Z,35.75
2023-01-11T18:30:34.237Z,36.1
2023-01-11T18:32:38.548Z,36.11
2023-01-11T18:34:42.890Z,36.36
2023-01-11T18:36:47.410Z,36.27
2023-01-11T18:38:51.810Z,36.39
2023-01-11T18:40:56.169Z,36.26
2023-01-11T18:43:00.504Z,36.25
2023-01-11T18:45:04.839Z,36.4
2023-01-11T18:47:09.218Z,36.52
2023-01-11T18:49:13.576Z,36.55
2023-01-11T18:51:18.385Z,36.7
2023-01-11T18:53:22.839Z,36.67
2023-01-11T18:55:27.250Z,36.73
2023-01-11T18:57:31.671Z,36.81
2023-01-11T18:59:36.136Z,36.77
2023-01-11T19:02:16.870Z,36.73
2023-01-11T19:04:21.611Z,36.68
2023-01-11T19:06:26.001Z,36.83
2023-01-11T19:08:32.735Z,37
2023-01-11T19:10:37.154Z,36.59
2023-01-11T19:12:41.525Z,36.9
2023-01-11T19:14:45.987Z,36.86
2023-01-11T19:16:50.340Z,37.06
2023-01-11T19:18:54.761Z,36.93
2023-01-11T19:20:59.075Z,36.88
2023-01-11T19:23:03.394Z,37.03
2023-01-11T19:25:07.774Z,37.09
2023-01-11T19:27:12.438Z,37.39
2023-01-11T19:29:16.883Z,37.41
2023-01-11T19:31:21.535Z,37.61
2023-01-11T19:33:25.892Z,37.32
2023-01-11T19:35:30.280Z,37.04
2023-01-11T19:37:34.655Z,37.3
2023-01-11T19:39:39.091Z,37.31
2023-01-11T19:41:43.405Z,37.33
2023-01-11T19:43:47.768Z,37.49
2023-01-11T19:45:52.356Z,37.49
2023-01-11T19:47:56.705Z,37.29
2023-01-11T19:50:01.076Z,37.53
2023-01-11T19:52:05.560Z,37.46
2023-01-11T19:54:09.961Z,37.7
2023-01-11T19:56:14.340Z,37.01
2023-01-11T19:58:18.782Z,35.66
2023-01-11T20:00:23.199Z,34.42
2023-01-11T20:02:27.758Z,34.32
2023-01-11T20:04:32.138Z,34.01
2023-01-11T20:06:36.575Z,33.92
2023-01-11T20:08:41.141Z,33.15
2023-01-11T20:10:45.487Z,32.8
2023-01-11T20:12:49.815Z,32.66
2023-01-11T20:14:55.321Z,32.71
2023-01-11T20:17:00.680Z,33.07
2023-01-11T20:19:05.058Z,33.12
2023-01-11T20:21:09.438Z,32.85
2023-01-11T20:23:13.890Z,32.86
2023-01-11T20:25:18.272Z,33.01
2023-01-11T20:27:22.613Z,32.8
2023-01-11T20:29:27.021Z,32.67
2023-01-11T20:31:31.630Z,32.62
2023-01-11T20:33:36.046Z,32.14
2023-01-11T20:35:40.458Z,32.44
2023-01-11T20:37:44.802Z,32.89
2023-01-11T20:39:49.180Z,32.25
2023-01-11T20:41:53.584Z,32.7
2023-01-11T20:43:57.937Z,33.39
2023-01-11T20:46:02.541Z,32.95
2023-01-11T20:48:06.964Z,33.37
2023-01-11T20:50:11.448Z,33.79
2023-01-11T20:52:15.980Z,33.14
2023-01-11T20:54:20.580Z,32.7
2023-01-11T20:56:25.084Z,32.45
2023-01-11T20:58:29.558Z,32.46
2023-01-11T21:00:33.975Z,31.93
2023-01-11T21:02:38.635Z,31.93
2023-01-11T21:04:43.124Z,31.83
2023-01-11T21:06:47.617Z,31.86
2023-01-11T21:08:52.113Z,31.99
2023-01-11T21:10:56.563Z,31.93
2023-01-11T21:13:02.929Z,31.63
2023-01-11T21:15:07.359Z,31.65
2023-01-11T21:17:11.895Z,31.75
2023-01-11T21:19:16.448Z,31.77
2023-01-11T21:21:20.912Z,32.13
2023-01-11T21:23:25.397Z,32.29
2023-01-11T21:25:29.948Z,32.39
2023-01-11T21:27:34.475Z,32.27
2023-01-11T21:29:38.947Z,32.16
2023-01-11T21:31:43.755Z,31.99
2023-01-11T21:33:48.218Z,31.89
2023-01-11T21:35:52.604Z,31.96
2023-01-11T21:37:57.056Z,31.74
2023-01-11T21:40:01.609Z,32.08
2023-01-11T21:42:06.078Z,32.09
2023-01-11T21:44:10.498Z,32.21
2023-01-11T21:46:15.216Z,32.34
2023-01-11T21:48:19.658Z,32.36
2023-01-11T21:50:24.075Z,32.52
2023-01-11T21:52:28.450Z,33.07
2023-01-11T21:54:32.942Z,32.95
2023-01-11T21:56:37.372Z,33.66
2023-01-11T21:58:41.728Z,33.19
2023-01-11T22:00:46.435Z,32.71
2023-01-11T22:02:50.891Z,32.53
2023-01-11T22:04:55.303Z,32.38
2023-01-11T22:07:01.572Z,32.78
2023-01-11T22:09:06.128Z,32.88
2023-01-11T22:11:10.538Z,32.75
2023-01-11T22:13:14.907Z,32.5
2023-01-11T22:15:19.328Z,32.31
2023-01-11T22:17:23.718Z,32.22
2023-01-11T22:19:28.111Z,31.87
2023-01-11T22:21:32.521Z,31.69
2023-01-11T22:23:36.939Z,31.6
2023-01-11T22:25:41.368Z,31.71
2023-01-11T22:27:45.799Z,31.5
2023-01-11T22:29:50.195Z,31.56
2023-01-11T22:31:55.152Z,31.48
2023-01-11T22:33:59.647Z,32.18
2023-01-11T22:36:04.030Z,32.05
2023-01-11T22:38:08.519Z,31.91
2023-01-11T22:40:12.986Z,32.2
2023-01-11T22:42:17.422Z,32.82
2023-01-11T22:44:21.851Z,32.92
2023-01-11T22:46:26.299Z,33.15
2023-01-11T22:48:30.713Z,33.17
2023-01-11T22:50:35.147Z,33.2
2023-01-11T22:52:39.717Z,33.31
2023-01-11T22:54:44.102Z,33.35
2023-01-11T22:56:48.627Z,33.4
2023-01-11T22:58:53.035Z,33.48
2023-01-11T23:00:57.519Z,33.47
2023-01-11T23:03:02.352Z,33.58
2023-01-11T23:05:06.807Z,33.61
2023-01-11T23:07:11.327Z,33.67
2023-01-11T23:09:18.328Z,33.75
2023-01-11T23:11:22.754Z,33.83
2023-01-11T23:13:27.285Z,33.84
2023-01-11T23:15:31.693Z,33.81
2023-01-11T23:17:36.161Z,33.89
2023-01-11T23:19:40.664Z,33.92
2023-01-11T23:21:45.240Z,33.96
2023-01-11T23:23:49.645Z,34.05
2023-01-11T23:25:54.116Z,34.11
2023-01-11T23:27:58.587Z,34.23
2023-01-11T23:30:03.127Z,34.29
2023-01-11T23:32:07.761Z,34.3
2023-01-11T23:34:12.340Z,34.39
2023-01-11T23:36:16.775Z,34.47
2023-01-11T23:38:21.180Z,34.47
2023-01-11T23:40:25.571Z,34.6
2023-01-11T23:42:30.022Z,34.79
2023-01-11T23:44:34.547Z,34.65
2023-01-11T23:46:38.973Z,34.77
2023-01-11T23:48:43.450Z,34.76
2023-01-11T23:50:47.875Z,34.75
2023-01-11T23:52:52.298Z,34.77
2023-01-11T23:54:56.871Z,34.79
2023-01-11T23:57:01.494Z,34.79
2023-01-11T23:59:05.942Z,34.91
